sensor_id;sensor_type;location;lat;lon;timestamp;P1;durP1;ratioP1;P2;durP2;ratioP2
65533;SDS011;53640;55.838;37.184;2023-09-18T00:00:27;7.30;;;5.22;;
65533;SDS011;53640;55.838;37.184;2023-09-18T00:02:54;5.55;;;4.88;;
65533;SDS011;53640;55.838;37.184;2023-09-18T00:05:21;6.80;;;4.45;;
65533;SDS011;53640;55.838;37.184;2023-09-18T00:07:47;9.13;;;5.38;;
65533;SDS011;53640;55.838;37.184;2023-09-18T00:10:13;8.65;;;5.03;;
65533;SDS011;53640;55.838;37.184;2023-09-18T00:12:40;7.88;;;5.05;;
65533;SDS011;53640;55.838;37.184;2023-09-18T00:15:06;6.43;;;5.03;;
65533;SDS011;53640;55.838;37.184;2023-09-18T00:17:36;8.05;;;5.50;;
65533;SDS011;53640;55.838;37.184;2023-09-18T00:20:02;5.90;;;4.35;;
65533;SDS011;53640;55.838;37.184;2023-09-18T00:22:35;5.95;;;4.25;;
65533;SDS011;53640;55.838;37.184;2023-09-18T00:25:01;7.38;;;4.97;;
65533;SDS011;53640;55.838;37.184;2023-09-18T00:27:29;6.50;;;4.82;;
65533;SDS011;53640;55.838;37.184;2023-09-18T00:29:55;6.38;;;5.00;;
65533;SDS011;53640;55.838;37.184;2023-09-18T00:32:22;10.75;;;4.50;;
65533;SDS011;53640;55.838;37.184;2023-09-18T00:34:48;5.00;;;4.43;;
65533;SDS011;53640;55.838;37.184;2023-09-18T00:37:15;6.45;;;4.78;;
65533;SDS011;53640;55.838;37.184;2023-09-18T00:39:42;8.43;;;5.03;;
65533;SDS011;53640;55.838;37.184;2023-09-18T00:42:09;4.43;;;4.03;;
65533;SDS011;53640;55.838;37.184;2023-09-18T00:44:40;4.88;;;3.95;;
65533;SDS011;53640;55.838;37.184;2023-09-18T00:47:09;5.72;;;4.10;;
65533;SDS011;53640;55.838;37.184;2023-09-18T00:49:37;5.05;;;3.83;;
65533;SDS011;53640;55.838;37.184;2023-09-18T00:52:06;4.93;;;3.90;;
65533;SDS011;53640;55.838;37.184;2023-09-18T00:54:34;5.13;;;4.47;;
65533;SDS011;53640;55.838;37.184;2023-09-18T00:57:03;8.05;;;4.47;;
65533;SDS011;53640;55.838;37.184;2023-09-18T00:59:30;7.45;;;4.15;;
65533;SDS011;53640;55.838;37.184;2023-09-18T01:01:56;6.55;;;3.95;;
65533;SDS011;53640;55.838;37.184;2023-09-18T01:04:23;5.55;;;4.45;;
65533;SDS011;53640;55.838;37.184;2023-09-18T01:06:51;5.50;;;3.90;;
65533;SDS011;53640;55.838;37.184;2023-09-18T01:09:19;5.72;;;4.57;;
65533;SDS011;53640;55.838;37.184;2023-09-18T01:11:49;4.40;;;3.75;;
65533;SDS011;53640;55.838;37.184;2023-09-18T01:14:33;4.78;;;3.85;;
65533;SDS011;53640;55.838;37.184;2023-09-18T01:17:14;4.50;;;3.90;;
65533;SDS011;53640;55.838;37.184;2023-09-18T01:19:43;5.35;;;4.22;;
65533;SDS011;53640;55.838;37.184;2023-09-18T01:22:18;4.43;;;3.83;;
65533;SDS011;53640;55.838;37.184;2023-09-18T01:24:46;4.47;;;3.83;;
65533;SDS011;53640;55.838;37.184;2023-09-18T01:27:13;5.45;;;3.63;;
65533;SDS011;53640;55.838;37.184;2023-09-18T01:29:44;5.55;;;3.80;;
65533;SDS011;53640;55.838;37.184;2023-09-18T01:32:11;7.00;;;4.10;;
65533;SDS011;53640;55.838;37.184;2023-09-18T01:34:39;4.43;;;3.05;;
65533;SDS011;53640;55.838;37.184;2023-09-18T01:37:09;4.07;;;3.67;;
65533;SDS011;53640;55.838;37.184;2023-09-18T01:39:37;5.38;;;3.70;;
65533;SDS011;53640;55.838;37.184;2023-09-18T01:42:05;4.93;;;3.60;;
65533;SDS011;53640;55.838;37.184;2023-09-18T01:44:33;5.20;;;4.03;;
65533;SDS011;53640;55.838;37.184;2023-09-18T01:47:01;6.85;;;4.07;;
65533;SDS011;53640;55.838;37.184;2023-09-18T01:51:57;4.20;;;3.70;;
65533;SDS011;53640;55.838;37.184;2023-09-18T01:54:23;6.18;;;3.60;;
65533;SDS011;53640;55.838;37.184;2023-09-18T01:56:52;5.03;;;3.65;;
65533;SDS011;53640;55.838;37.184;2023-09-18T01:59:20;4.75;;;3.92;;
65533;SDS011;53640;55.838;37.184;2023-09-18T02:01:48;4.72;;;3.55;;
65533;SDS011;53640;55.838;37.184;2023-09-18T02:04:15;4.38;;;3.60;;
65533;SDS011;53640;55.838;37.184;2023-09-18T02:06:42;4.55;;;3.88;;
65533;SDS011;53640;55.838;37.184;2023-09-18T02:09:09;3.83;;;3.38;;
65533;SDS011;53640;55.838;37.184;2023-09-18T02:11:39;7.22;;;3.75;;
65533;SDS011;53640;55.838;37.184;2023-09-18T02:14:07;3.67;;;3.38;;
65533;SDS011;53640;55.838;37.184;2023-09-18T02:16:36;4.97;;;3.80;;
65533;SDS011;53640;55.838;37.184;2023-09-18T02:19:07;4.57;;;3.55;;
65533;SDS011;53640;55.838;37.184;2023-09-18T02:21:35;6.18;;;3.63;;
65533;SDS011;53640;55.838;37.184;2023-09-18T02:24:01;4.60;;;3.65;;
65533;SDS011;53640;55.838;37.184;2023-09-18T02:26:29;6.07;;;3.88;;
65533;SDS011;53640;55.838;37.184;2023-09-18T02:28:58;3.78;;;3.40;;
65533;SDS011;53640;55.838;37.184;2023-09-18T02:31:27;4.28;;;3.83;;
65533;SDS011;53640;55.838;37.184;2023-09-18T02:33:54;5.72;;;4.03;;
65533;SDS011;53640;55.838;37.184;2023-09-18T02:36:20;3.50;;;3.20;;
65533;SDS011;53640;55.838;37.184;2023-09-18T02:38:48;4.50;;;3.47;;
65533;SDS011;53640;55.838;37.184;2023-09-18T02:41:15;3.60;;;3.30;;
65533;SDS011;53640;55.838;37.184;2023-09-18T02:43:41;6.00;;;3.97;;
65533;SDS011;53640;55.838;37.184;2023-09-18T02:46:07;5.78;;;3.60;;
65533;SDS011;53640;55.838;37.184;2023-09-18T02:48:35;5.63;;;3.95;;
65533;SDS011;53640;55.838;37.184;2023-09-18T02:51:01;4.05;;;3.65;;
65533;SDS011;53640;55.838;37.184;2023-09-18T02:53:29;4.03;;;3.42;;
65533;SDS011;53640;55.838;37.184;2023-09-18T02:55:57;6.65;;;3.95;;
65533;SDS011;53640;55.838;37.184;2023-09-18T02:58:25;4.63;;;3.47;;
65533;SDS011;53640;55.838;37.184;2023-09-18T03:00:52;5.60;;;3.80;;
65533;SDS011;53640;55.838;37.184;2023-09-18T03:03:27;4.20;;;3.55;;
65533;SDS011;53640;55.838;37.184;2023-09-18T03:05:59;6.00;;;3.33;;
65533;SDS011;53640;55.838;37.184;2023-09-18T03:08:27;5.00;;;3.72;;
65533;SDS011;53640;55.838;37.184;2023-09-18T03:10:55;5.53;;;4.22;;
65533;SDS011;53640;55.838;37.184;2023-09-18T03:13:22;5.38;;;4.47;;
65533;SDS011;53640;55.838;37.184;2023-09-18T03:15:49;6.53;;;5.18;;
65533;SDS011;53640;55.838;37.184;2023-09-18T03:18:15;6.75;;;5.25;;
65533;SDS011;53640;55.838;37.184;2023-09-18T03:20:43;7.10;;;5.40;;
65533;SDS011;53640;55.838;37.184;2023-09-18T03:23:09;7.25;;;5.40;;
65533;SDS011;53640;55.838;37.184;2023-09-18T03:25:36;7.72;;;5.63;;
65533;SDS011;53640;55.838;37.184;2023-09-18T03:28:05;5.35;;;4.50;;
65533;SDS011;53640;55.838;37.184;2023-09-18T03:30:33;5.65;;;4.85;;
65533;SDS011;53640;55.838;37.184;2023-09-18T03:33:01;5.85;;;5.05;;
65533;SDS011;53640;55.838;37.184;2023-09-18T03:35:28;6.60;;;5.15;;
65533;SDS011;53640;55.838;37.184;2023-09-18T03:37:58;4.78;;;4.28;;
65533;SDS011;53640;55.838;37.184;2023-09-18T03:40:24;5.68;;;4.53;;
65533;SDS011;53640;55.838;37.184;2023-09-18T03:42:50;6.50;;;4.63;;
65533;SDS011;53640;55.838;37.184;2023-09-18T03:45:17;6.18;;;4.65;;
65533;SDS011;53640;55.838;37.184;2023-09-18T03:47:47;4.47;;;4.00;;
65533;SDS011;53640;55.838;37.184;2023-09-18T03:50:16;5.90;;;4.50;;
65533;SDS011;53640;55.838;37.184;2023-09-18T03:52:42;6.82;;;4.30;;
65533;SDS011;53640;55.838;37.184;2023-09-18T03:55:09;5.57;;;3.97;;
65533;SDS011;53640;55.838;37.184;2023-09-18T03:57:35;11.43;;;4.45;;
65533;SDS011;53640;55.838;37.184;2023-09-18T04:00:04;5.57;;;4.22;;
65533;SDS011;53640;55.838;37.184;2023-09-18T04:02:37;6.50;;;4.28;;
65533;SDS011;53640;55.838;37.184;2023-09-18T04:05:04;5.93;;;3.72;;
65533;SDS011;53640;55.838;37.184;2023-09-18T04:07:31;4.95;;;3.75;;
65533;SDS011;53640;55.838;37.184;2023-09-18T04:09:59;4.13;;;3.65;;
65533;SDS011;53640;55.838;37.184;2023-09-18T04:12:38;5.15;;;3.80;;
65533;SDS011;53640;55.838;37.184;2023-09-18T04:15:04;3.97;;;3.58;;
65533;SDS011;53640;55.838;37.184;2023-09-18T04:17:31;4.15;;;3.75;;
65533;SDS011;53640;55.838;37.184;2023-09-18T04:19:57;4.45;;;3.33;;
65533;SDS011;53640;55.838;37.184;2023-09-18T04:22:23;9.05;;;3.78;;
65533;SDS011;53640;55.838;37.184;2023-09-18T04:24:50;3.72;;;3.30;;
65533;SDS011;53640;55.838;37.184;2023-09-18T04:27:18;6.03;;;3.50;;
65533;SDS011;53640;55.838;37.184;2023-09-18T04:29:44;3.60;;;3.30;;
65533;SDS011;53640;55.838;37.184;2023-09-18T04:32:10;5.05;;;3.90;;
65533;SDS011;53640;55.838;37.184;2023-09-18T04:34:36;4.22;;;3.58;;
65533;SDS011;53640;55.838;37.184;2023-09-18T04:37:03;3.58;;;3.28;;
65533;SDS011;53640;55.838;37.184;2023-09-18T04:39:30;5.40;;;3.90;;
65533;SDS011;53640;55.838;37.184;2023-09-18T04:42:01;4.18;;;3.78;;
65533;SDS011;53640;55.838;37.184;2023-09-18T04:44:30;4.47;;;3.17;;
65533;SDS011;53640;55.838;37.184;2023-09-18T04:46:56;4.35;;;3.72;;
65533;SDS011;53640;55.838;37.184;2023-09-18T04:49:23;5.53;;;4.00;;
65533;SDS011;53640;55.838;37.184;2023-09-18T04:51:50;5.47;;;3.63;;
65533;SDS011;53640;55.838;37.184;2023-09-18T04:54:17;4.18;;;3.45;;
65533;SDS011;53640;55.838;37.184;2023-09-18T04:56:43;4.45;;;3.92;;
65533;SDS011;53640;55.838;37.184;2023-09-18T04:59:09;5.38;;;3.85;;
65533;SDS011;53640;55.838;37.184;2023-09-18T05:01:36;4.57;;;3.53;;
65533;SDS011;53640;55.838;37.184;2023-09-18T05:04:03;3.78;;;3.40;;
65533;SDS011;53640;55.838;37.184;2023-09-18T05:06:29;6.18;;;3.45;;
65533;SDS011;53640;55.838;37.184;2023-09-18T05:08:55;9.52;;;3.97;;
65533;SDS011;53640;55.838;37.184;2023-09-18T05:11:23;6.22;;;3.70;;
65533;SDS011;53640;55.838;37.184;2023-09-18T05:13:50;8.30;;;4.00;;
65533;SDS011;53640;55.838;37.184;2023-09-18T05:16:16;7.05;;;4.07;;
65533;SDS011;53640;55.838;37.184;2023-09-18T05:18:43;6.32;;;3.97;;
65533;SDS011;53640;55.838;37.184;2023-09-18T05:21:10;5.55;;;4.03;;
65533;SDS011;53640;55.838;37.184;2023-09-18T05:23:36;4.78;;;3.80;;
65533;SDS011;53640;55.838;37.184;2023-09-18T05:26:02;7.05;;;3.90;;
65533;SDS011;53640;55.838;37.184;2023-09-18T05:28:29;6.20;;;4.07;;
65533;SDS011;53640;55.838;37.184;2023-09-18T05:30:55;5.93;;;4.20;;
65533;SDS011;53640;55.838;37.184;2023-09-18T05:33:21;6.95;;;4.00;;
65533;SDS011;53640;55.838;37.184;2023-09-18T05:35:47;5.80;;;3.80;;
65533;SDS011;53640;55.838;37.184;2023-09-18T05:38:14;4.97;;;3.75;;
65533;SDS011;53640;55.838;37.184;2023-09-18T05:40:41;4.25;;;3.85;;
65533;SDS011;53640;55.838;37.184;2023-09-18T05:43:13;6.40;;;3.80;;
65533;SDS011;53640;55.838;37.184;2023-09-18T05:45:40;4.32;;;3.90;;
65533;SDS011;53640;55.838;37.184;2023-09-18T05:48:07;4.03;;;3.13;;
65533;SDS011;53640;55.838;37.184;2023-09-18T05:50:35;4.45;;;3.53;;
65533;SDS011;53640;55.838;37.184;2023-09-18T05:53:05;3.78;;;3.38;;
65533;SDS011;53640;55.838;37.184;2023-09-18T05:55:32;4.65;;;3.78;;
65533;SDS011;53640;55.838;37.184;2023-09-18T05:57:59;4.68;;;3.80;;
65533;SDS011;53640;55.838;37.184;2023-09-18T06:00:27;4.22;;;3.20;;
65533;SDS011;53640;55.838;37.184;2023-09-18T06:02:53;4.53;;;3.80;;
65533;SDS011;53640;55.838;37.184;2023-09-18T06:05:20;6.38;;;4.20;;
65533;SDS011;53640;55.838;37.184;2023-09-18T06:07:49;4.50;;;3.42;;
65533;SDS011;53640;55.838;37.184;2023-09-18T06:10:16;5.75;;;3.55;;
65533;SDS011;53640;55.838;37.184;2023-09-18T06:12:44;6.53;;;4.03;;
65533;SDS011;53640;55.838;37.184;2023-09-18T06:15:11;4.20;;;3.67;;
65533;SDS011;53640;55.838;37.184;2023-09-18T06:17:38;4.68;;;3.90;;
65533;SDS011;53640;55.838;37.184;2023-09-18T06:20:06;8.68;;;3.97;;
65533;SDS011;53640;55.838;37.184;2023-09-18T06:22:37;3.88;;;3.58;;
65533;SDS011;53640;55.838;37.184;2023-09-18T06:25:06;6.78;;;4.00;;
65533;SDS011;53640;55.838;37.184;2023-09-18T06:27:36;5.35;;;3.50;;
65533;SDS011;53640;55.838;37.184;2023-09-18T06:30:04;4.07;;;3.67;;
65533;SDS011;53640;55.838;37.184;2023-09-18T06:32:31;5.43;;;3.28;;
65533;SDS011;53640;55.838;37.184;2023-09-18T06:34:57;4.20;;;3.45;;
65533;SDS011;53640;55.838;37.184;2023-09-18T06:37:24;4.97;;;3.70;;
65533;SDS011;53640;55.838;37.184;2023-09-18T06:39:51;4.93;;;3.80;;
65533;SDS011;53640;55.838;37.184;2023-09-18T06:42:17;4.65;;;3.78;;
65533;SDS011;53640;55.838;37.184;2023-09-18T06:44:44;3.60;;;3.30;;
65533;SDS011;53640;55.838;37.184;2023-09-18T06:47:10;8.65;;;4.30;;
65533;SDS011;53640;55.838;37.184;2023-09-18T06:49:37;4.38;;;3.72;;
65533;SDS011;53640;55.838;37.184;2023-09-18T06:52:03;6.60;;;3.60;;
65533;SDS011;53640;55.838;37.184;2023-09-18T06:54:30;8.75;;;3.90;;
65533;SDS011;53640;55.838;37.184;2023-09-18T06:56:56;5.82;;;4.15;;
65533;SDS011;53640;55.838;37.184;2023-09-18T06:59:23;8.35;;;3.97;;
65533;SDS011;53640;55.838;37.184;2023-09-18T07:01:49;4.80;;;3.92;;
65533;SDS011;53640;55.838;37.184;2023-09-18T07:04:16;6.00;;;3.92;;
65533;SDS011;53640;55.838;37.184;2023-09-18T07:06:42;8.40;;;4.63;;
65533;SDS011;53640;55.838;37.184;2023-09-18T07:09:08;6.72;;;4.20;;
65533;SDS011;53640;55.838;37.184;2023-09-18T07:11:37;6.15;;;4.25;;
65533;SDS011;53640;55.838;37.184;2023-09-18T07:14:04;6.20;;;4.03;;
65533;SDS011;53640;55.838;37.184;2023-09-18T07:16:32;5.63;;;4.00;;
65533;SDS011;53640;55.838;37.184;2023-09-18T07:18:59;3.90;;;3.50;;
65533;SDS011;53640;55.838;37.184;2023-09-18T07:21:27;3.60;;;3.25;;
65533;SDS011;53640;55.838;37.184;2023-09-18T07:23:55;6.28;;;4.07;;
65533;SDS011;53640;55.838;37.184;2023-09-18T07:26:21;4.90;;;4.32;;
65533;SDS011;53640;55.838;37.184;2023-09-18T07:28:47;4.80;;;3.53;;
65533;SDS011;53640;55.838;37.184;2023-09-18T07:31:14;5.03;;;3.85;;
65533;SDS011;53640;55.838;37.184;2023-09-18T07:33:40;7.05;;;4.45;;
65533;SDS011;53640;55.838;37.184;2023-09-18T07:36:08;6.78;;;4.38;;
65533;SDS011;53640;55.838;37.184;2023-09-18T07:38:36;9.23;;;5.20;;
65533;SDS011;53640;55.838;37.184;2023-09-18T07:41:03;8.50;;;4.75;;
65533;SDS011;53640;55.838;37.184;2023-09-18T07:43:29;6.68;;;4.57;;
65533;SDS011;53640;55.838;37.184;2023-09-18T07:45:56;5.63;;;3.95;;
65533;SDS011;53640;55.838;37.184;2023-09-18T07:48:23;7.63;;;4.68;;
65533;SDS011;53640;55.838;37.184;2023-09-18T07:50:49;6.38;;;4.60;;
65533;SDS011;53640;55.838;37.184;2023-09-18T07:53:17;7.20;;;5.00;;
65533;SDS011;53640;55.838;37.184;2023-09-18T07:55:43;8.93;;;5.32;;
65533;SDS011;53640;55.838;37.184;2023-09-18T07:58:10;8.23;;;5.00;;
65533;SDS011;53640;55.838;37.184;2023-09-18T08:00:37;9.27;;;5.45;;
65533;SDS011;53640;55.838;37.184;2023-09-18T08:03:03;6.85;;;4.65;;
65533;SDS011;53640;55.838;37.184;2023-09-18T08:05:29;9.45;;;5.50;;
65533;SDS011;53640;55.838;37.184;2023-09-18T08:07:57;5.85;;;4.20;;
65533;SDS011;53640;55.838;37.184;2023-09-18T08:10:25;5.90;;;4.68;;
65533;SDS011;53640;55.838;37.184;2023-09-18T08:12:51;6.50;;;5.07;;
65533;SDS011;53640;55.838;37.184;2023-09-18T08:15:19;7.72;;;5.07;;
65533;SDS011;53640;55.838;37.184;2023-09-18T08:17:46;6.72;;;4.90;;
65533;SDS011;53640;55.838;37.184;2023-09-18T08:20:14;7.00;;;5.00;;
65533;SDS011;53640;55.838;37.184;2023-09-18T08:22:42;6.57;;;5.03;;
65533;SDS011;53640;55.838;37.184;2023-09-18T08:25:10;7.55;;;4.70;;
65533;SDS011;53640;55.838;37.184;2023-09-18T08:27:38;8.40;;;5.53;;
65533;SDS011;53640;55.838;37.184;2023-09-18T08:30:07;6.70;;;4.47;;
65533;SDS011;53640;55.838;37.184;2023-09-18T08:32:36;7.07;;;5.65;;
65533;SDS011;53640;55.838;37.184;2023-09-18T08:35:04;6.90;;;5.93;;
65533;SDS011;53640;55.838;37.184;2023-09-18T08:37:31;6.85;;;5.35;;
65533;SDS011;53640;55.838;37.184;2023-09-18T08:39:57;9.05;;;5.75;;
65533;SDS011;53640;55.838;37.184;2023-09-18T08:42:27;6.53;;;4.95;;
65533;SDS011;53640;55.838;37.184;2023-09-18T08:44:58;7.68;;;5.57;;
65533;SDS011;53640;55.838;37.184;2023-09-18T08:47:25;5.95;;;4.90;;
65533;SDS011;53640;55.838;37.184;2023-09-18T08:49:54;6.97;;;5.47;;
65533;SDS011;53640;55.838;37.184;2023-09-18T08:52:21;7.93;;;5.30;;
65533;SDS011;53640;55.838;37.184;2023-09-18T08:54:49;8.38;;;6.15;;
65533;SDS011;53640;55.838;37.184;2023-09-18T08:57:17;9.82;;;6.07;;
65533;SDS011;53640;55.838;37.184;2023-09-18T08:59:44;8.30;;;5.30;;
65533;SDS011;53640;55.838;37.184;2023-09-18T09:02:14;6.47;;;5.10;;
65533;SDS011;53640;55.838;37.184;2023-09-18T09:04:41;7.93;;;6.10;;
65533;SDS011;53640;55.838;37.184;2023-09-18T09:07:07;6.82;;;5.00;;
65533;SDS011;53640;55.838;37.184;2023-09-18T09:09:35;8.45;;;5.78;;
65533;SDS011;53640;55.838;37.184;2023-09-18T09:12:01;6.70;;;4.68;;
65533;SDS011;53640;55.838;37.184;2023-09-18T09:14:27;6.60;;;5.90;;
65533;SDS011;53640;55.838;37.184;2023-09-18T09:16:54;8.02;;;5.57;;
65533;SDS011;53640;55.838;37.184;2023-09-18T09:22:04;8.25;;;5.40;;
65533;SDS011;53640;55.838;37.184;2023-09-18T09:24:38;6.43;;;5.60;;
65533;SDS011;53640;55.838;37.184;2023-09-18T09:27:07;8.52;;;6.18;;
65533;SDS011;53640;55.838;37.184;2023-09-18T09:29:34;6.13;;;5.35;;
65533;SDS011;53640;55.838;37.184;2023-09-18T09:32:17;8.13;;;6.35;;
65533;SDS011;53640;55.838;37.184;2023-09-18T09:34:45;6.40;;;5.32;;
65533;SDS011;53640;55.838;37.184;2023-09-18T09:37:12;8.88;;;6.15;;
65533;SDS011;53640;55.838;37.184;2023-09-18T09:39:46;8.63;;;6.10;;
65533;SDS011;53640;55.838;37.184;2023-09-18T09:42:15;6.20;;;5.60;;
65533;SDS011;53640;55.838;37.184;2023-09-18T09:44:44;6.72;;;5.28;;
65533;SDS011;53640;55.838;37.184;2023-09-18T09:47:10;5.63;;;4.50;;
65533;SDS011;53640;55.838;37.184;2023-09-18T09:49:47;5.63;;;4.78;;
65533;SDS011;53640;55.838;37.184;2023-09-18T09:52:17;4.50;;;4.10;;
65533;SDS011;53640;55.838;37.184;2023-09-18T09:54:47;6.10;;;4.55;;
65533;SDS011;53640;55.838;37.184;2023-09-18T09:57:14;7.97;;;5.20;;
65533;SDS011;53640;55.838;37.184;2023-09-18T09:59:40;5.05;;;4.32;;
65533;SDS011;53640;55.838;37.184;2023-09-18T10:02:10;5.93;;;4.72;;
65533;SDS011;53640;55.838;37.184;2023-09-18T10:04:45;7.28;;;4.63;;
65533;SDS011;53640;55.838;37.184;2023-09-18T10:07:14;5.22;;;4.72;;
65533;SDS011;53640;55.838;37.184;2023-09-18T10:09:43;4.85;;;4.18;;
65533;SDS011;53640;55.838;37.184;2023-09-18T10:12:14;5.07;;;3.38;;
65533;SDS011;53640;55.838;37.184;2023-09-18T10:14:46;3.58;;;3.28;;
65533;SDS011;53640;55.838;37.184;2023-09-18T10:17:16;4.47;;;3.58;;
65533;SDS011;53640;55.838;37.184;2023-09-18T10:22:32;4.05;;;3.20;;
65533;SDS011;53640;55.838;37.184;2023-09-18T10:25:11;5.03;;;3.88;;
65533;SDS011;53640;55.838;37.184;2023-09-18T10:27:45;4.40;;;3.10;;
65533;SDS011;53640;55.838;37.184;2023-09-18T10:30:18;3.50;;;3.20;;
65533;SDS011;53640;55.838;37.184;2023-09-18T10:32:45;5.18;;;4.20;;
65533;SDS011;53640;55.838;37.184;2023-09-18T10:35:12;3.78;;;3.47;;
65533;SDS011;53640;55.838;37.184;2023-09-18T10:37:38;3.80;;;3.42;;
65533;SDS011;53640;55.838;37.184;2023-09-18T10:40:07;4.22;;;3.75;;
65533;SDS011;53640;55.838;37.184;2023-09-18T10:42:38;3.58;;;3.25;;
65533;SDS011;53640;55.838;37.184;2023-09-18T10:45:08;4.13;;;3.42;;
65533;SDS011;53640;55.838;37.184;2023-09-18T10:47:39;4.03;;;3.40;;
65533;SDS011;53640;55.838;37.184;2023-09-18T10:50:08;3.50;;;3.20;;
65533;SDS011;53640;55.838;37.184;2023-09-18T10:52:35;3.35;;;3.05;;
65533;SDS011;53640;55.838;37.184;2023-09-18T10:55:11;3.80;;;3.00;;
65533;SDS011;53640;55.838;37.184;2023-09-18T10:57:53;3.83;;;3.17;;
65533;SDS011;53640;55.838;37.184;2023-09-18T11:00:21;3.77;;;2.73;;
65533;SDS011;53640;55.838;37.184;2023-09-18T11:02:51;5.00;;;2.33;;
65533;SDS011;53640;55.838;37.184;2023-09-18T11:05:30;3.80;;;2.92;;
65533;SDS011;53640;55.838;37.184;2023-09-18T11:13:28;2.75;;;2.53;;
65533;SDS011;53640;55.838;37.184;2023-09-18T11:18:53;3.22;;;2.80;;
65533;SDS011;53640;55.838;37.184;2023-09-18T11:21:27;3.13;;;2.78;;
65533;SDS011;53640;55.838;37.184;2023-09-18T11:23:58;3.15;;;2.75;;
65533;SDS011;53640;55.838;37.184;2023-09-18T11:26:28;2.95;;;2.22;;
65533;SDS011;53640;55.838;37.184;2023-09-18T11:28:59;3.00;;;1.90;;
65533;SDS011;53640;55.838;37.184;2023-09-18T11:34:25;2.40;;;2.30;;
65533;SDS011;53640;55.838;37.184;2023-09-18T11:37:25;2.45;;;2.25;;
65533;SDS011;53640;55.838;37.184;2023-09-18T11:39:51;2.70;;;2.40;;
65533;SDS011;53640;55.838;37.184;2023-09-18T11:42:19;3.92;;;2.60;;
65533;SDS011;53640;55.838;37.184;2023-09-18T11:44:48;2.58;;;2.38;;
65533;SDS011;53640;55.838;37.184;2023-09-18T11:47:16;2.92;;;2.72;;
65533;SDS011;53640;55.838;37.184;2023-09-18T11:49:46;2.95;;;2.75;;
65533;SDS011;53640;55.838;37.184;2023-09-18T11:52:28;3.20;;;2.70;;
65533;SDS011;53640;55.838;37.184;2023-09-18T11:54:56;2.65;;;2.45;;
65533;SDS011;53640;55.838;37.184;2023-09-18T11:57:24;3.20;;;2.88;;
65533;SDS011;53640;55.838;37.184;2023-09-18T11:59:53;2.60;;;2.40;;
65533;SDS011;53640;55.838;37.184;2023-09-18T12:02:30;3.15;;;2.85;;
65533;SDS011;53640;55.838;37.184;2023-09-18T12:05:10;3.05;;;2.70;;
65533;SDS011;53640;55.838;37.184;2023-09-18T12:07:40;2.53;;;2.10;;
65533;SDS011;53640;55.838;37.184;2023-09-18T12:10:12;2.50;;;2.30;;
65533;SDS011;53640;55.838;37.184;2023-09-18T12:12:41;3.17;;;2.72;;
65533;SDS011;53640;55.838;37.184;2023-09-18T12:15:09;3.35;;;3.05;;
65533;SDS011;53640;55.838;37.184;2023-09-18T12:17:37;3.72;;;3.42;;
65533;SDS011;53640;55.838;37.184;2023-09-18T12:20:03;4.07;;;3.15;;
65533;SDS011;53640;55.838;37.184;2023-09-18T12:22:31;4.47;;;4.07;;
65533;SDS011;53640;55.838;37.184;2023-09-18T12:25:09;5.53;;;3.85;;
65533;SDS011;53640;55.838;37.184;2023-09-18T12:27:36;5.03;;;4.53;;
65533;SDS011;53640;55.838;37.184;2023-09-18T12:30:03;6.13;;;4.30;;
65533;SDS011;53640;55.838;37.184;2023-09-18T12:32:30;5.07;;;4.53;;
65533;SDS011;53640;55.838;37.184;2023-09-18T12:34:58;5.85;;;4.53;;
65533;SDS011;53640;55.838;37.184;2023-09-18T12:37:24;5.10;;;3.70;;
65533;SDS011;53640;55.838;37.184;2023-09-18T12:39:52;8.05;;;4.88;;
65533;SDS011;53640;55.838;37.184;2023-09-18T12:42:18;7.30;;;4.63;;
65533;SDS011;53640;55.838;37.184;2023-09-18T12:44:46;4.97;;;4.45;;
65533;SDS011;53640;55.838;37.184;2023-09-18T12:47:13;5.28;;;4.60;;
65533;SDS011;53640;55.838;37.184;2023-09-18T12:49:40;7.07;;;4.80;;
65533;SDS011;53640;55.838;37.184;2023-09-18T12:52:06;7.05;;;5.10;;
65533;SDS011;53640;55.838;37.184;2023-09-18T12:54:40;4.85;;;4.35;;
65533;SDS011;53640;55.838;37.184;2023-09-18T12:57:07;5.43;;;4.03;;
65533;SDS011;53640;55.838;37.184;2023-09-18T12:59:36;4.75;;;4.25;;
65533;SDS011;53640;55.838;37.184;2023-09-18T13:02:05;4.38;;;3.95;;
65533;SDS011;53640;55.838;37.184;2023-09-18T13:04:34;6.88;;;4.78;;
65533;SDS011;53640;55.838;37.184;2023-09-18T13:07:03;5.00;;;4.50;;
65533;SDS011;53640;55.838;37.184;2023-09-18T13:09:31;5.57;;;4.45;;
65533;SDS011;53640;55.838;37.184;2023-09-18T13:11:58;5.80;;;4.47;;
65533;SDS011;53640;55.838;37.184;2023-09-18T13:14:24;5.28;;;4.78;;
65533;SDS011;53640;55.838;37.184;2023-09-18T13:16:51;4.65;;;4.10;;
65533;SDS011;53640;55.838;37.184;2023-09-18T13:19:17;5.20;;;4.70;;
65533;SDS011;53640;55.838;37.184;2023-09-18T13:21:48;4.97;;;4.47;;
65533;SDS011;53640;55.838;37.184;2023-09-18T13:24:25;5.47;;;3.75;;
65533;SDS011;53640;55.838;37.184;2023-09-18T13:26:53;4.95;;;4.25;;
65533;SDS011;53640;55.838;37.184;2023-09-18T13:29:20;10.52;;;5.03;;
65533;SDS011;53640;55.838;37.184;2023-09-18T13:31:47;6.85;;;4.85;;
65533;SDS011;53640;55.838;37.184;2023-09-18T13:34:13;5.18;;;4.32;;
65533;SDS011;53640;55.838;37.184;2023-09-18T13:36:44;8.50;;;4.40;;
65533;SDS011;53640;55.838;37.184;2023-09-18T13:39:11;5.78;;;4.30;;
65533;SDS011;53640;55.838;37.184;2023-09-18T13:41:39;5.45;;;3.65;;
65533;SDS011;53640;55.838;37.184;2023-09-18T13:44:07;3.85;;;3.28;;
65533;SDS011;53640;55.838;37.184;2023-09-18T13:46:33;4.47;;;3.40;;
65533;SDS011;53640;55.838;37.184;2023-09-18T13:49:03;4.47;;;3.42;;
65533;SDS011;53640;55.838;37.184;2023-09-18T13:51:31;4.07;;;3.60;;
65533;SDS011;53640;55.838;37.184;2023-09-18T13:53:58;3.78;;;3.47;;
65533;SDS011;53640;55.838;37.184;2023-09-18T13:56:25;3.25;;;3.00;;
65533;SDS011;53640;55.838;37.184;2023-09-18T13:58:55;3.60;;;3.30;;
65533;SDS011;53640;55.838;37.184;2023-09-18T14:01:24;3.92;;;3.63;;
65533;SDS011;53640;55.838;37.184;2023-09-18T14:03:52;5.18;;;3.50;;
65533;SDS011;53640;55.838;37.184;2023-09-18T14:06:19;3.25;;;2.95;;
65533;SDS011;53640;55.838;37.184;2023-09-18T14:08:45;8.00;;;3.95;;
65533;SDS011;53640;55.838;37.184;2023-09-18T14:11:13;3.65;;;3.35;;
65533;SDS011;53640;55.838;37.184;2023-09-18T14:13:39;4.15;;;3.75;;
65533;SDS011;53640;55.838;37.184;2023-09-18T14:16:06;3.67;;;3.33;;
65533;SDS011;53640;55.838;37.184;2023-09-18T14:18:34;3.45;;;3.15;;
65533;SDS011;53640;55.838;37.184;2023-09-18T14:21:00;3.45;;;3.15;;
65533;SDS011;53640;55.838;37.184;2023-09-18T14:23:27;3.65;;;3.20;;
65533;SDS011;53640;55.838;37.184;2023-09-18T14:25:54;3.85;;;3.30;;
65533;SDS011;53640;55.838;37.184;2023-09-18T14:28:21;6.30;;;3.95;;
65533;SDS011;53640;55.838;37.184;2023-09-18T14:30:47;5.18;;;3.67;;
65533;SDS011;53640;55.838;37.184;2023-09-18T14:33:13;5.60;;;3.50;;
65533;SDS011;53640;55.838;37.184;2023-09-18T14:35:40;4.20;;;3.75;;
65533;SDS011;53640;55.838;37.184;2023-09-18T14:38:07;5.10;;;3.70;;
65533;SDS011;53640;55.838;37.184;2023-09-18T14:40:34;4.50;;;3.95;;
65533;SDS011;53640;55.838;37.184;2023-09-18T14:43:00;4.85;;;3.50;;
65533;SDS011;53640;55.838;37.184;2023-09-18T14:45:27;3.83;;;3.40;;
65533;SDS011;53640;55.838;37.184;2023-09-18T14:47:53;5.32;;;4.35;;
65533;SDS011;53640;55.838;37.184;2023-09-18T14:50:19;5.95;;;4.18;;
65533;SDS011;53640;55.838;37.184;2023-09-18T14:52:46;4.13;;;3.72;;
65533;SDS011;53640;55.838;37.184;2023-09-18T14:55:13;4.30;;;3.85;;
65533;SDS011;53640;55.838;37.184;2023-09-18T14:57:39;4.63;;;3.72;;